Terminal Aerodrome Forecast
Issued by NWS Amarillo, TX

Home | Current Version | Previous Version | Text Only | Print | Product List | Glossary On
Versions: 1 2 3 4 5 6 7 8 9 10 11 12
000
FTUS44 KAMA 020500
TAFAMA
TAF
KAMA 020520Z 0206/0306 18010KT P6SM BKN250
     FM020700 23008KT P6SM VCTS BKN090CB OVC250
      TEMPO 0207/0210 VRB15G25KT 5SM -TSRA
     FM021200 34010KT P6SM SCT100 BKN250
     FM021900 02010KT P6SM OVC070
     FM030000 15010KT P6SM SCT020 BKN080=

USA.gov is the U.S. government's official web portal to all federal, state and local government web resources and services.